Terminal Aerodrome Forecast
Issued by NWS

Home | Current Version | Previous Version | Text Only | Print | Product List | Glossary On
Versions: 1 2 3 4 5 6 7 8 9 10 11 12 13 14 15 16 17 18 19 20 21 22 23 24 25 26 27 28
000
FTPQ31 PGUM 281144
TAFGUM
TAF

TAF
PTKK 281144Z 2812/2912 35020G30KT 6SM -RA SCT014 BKN040 OVC100
      TEMPO 2812/2816 35030G40KT 5SM SHRA SCT012 BKN025
     FM281600 33035G45KT 5SM RA VCTS BKN012CB BKN030 OVC080
      TEMPO 2816/2820 32040G50KT 2SM +SHRA BKN010 OVC020
     FM282000 29045G55KT 3SM +RA VCTS BKN010CB OVC025
      TEMPO 2820/2824 27055G65KT 1SM +TSRA BKN008CB OVC020
     FM290200 25040G50KT 5SM RA VCTS BKN014CB OVC040
      TEMPO 2902/2906 3SM +SHRA BKN012 OVC030=

USA.gov is the U.S. government's official web portal to all federal, state and local government web resources and services.